Terminal Aerodrome Forecast
Issued by NWS

Home | Current Version | Previous Version | Text Only | Print | Product List | Glossary On
Versions: 1 2 3 4 5 6 7 8 9 10 11 12 13 14
000
FTUS45 KGJT 300538
TAFEGE
TAF
KEGE 300538Z 3006/0106 VRB03KT P6SM VCSH SCT090 BKN120
     FM300800 VRB04KT P6SM -RA BKN080
     FM301900 25009KT P6SM VCTS BKN090CB
     FM010200 VRB04KT P6SM VCSH BKN080
      AMD LTD TO CLD VIS AND WIND TIL 301300=

USA.gov is the U.S. government's official web portal to all federal, state and local government web resources and services.